sensor_id;sensor_type;location;lat;lon;timestamp;P1;durP1;ratioP1;P2;durP2;ratioP2
21503;SDS011;10913;51.992;9.228;2022-10-26T00:02:02;5.97;;;5.38;;
21503;SDS011;10913;51.992;9.228;2022-10-26T00:04:27;5.60;;;5.10;;
21503;SDS011;10913;51.992;9.228;2022-10-26T00:06:52;4.65;;;4.22;;
21503;SDS011;10913;51.992;9.228;2022-10-26T00:09:18;5.38;;;4.88;;
21503;SDS011;10913;51.992;9.228;2022-10-26T00:11:44;5.32;;;4.82;;
21503;SDS011;10913;51.992;9.228;2022-10-26T00:14:09;5.00;;;4.60;;
21503;SDS011;10913;51.992;9.228;2022-10-26T00:16:34;5.05;;;4.65;;
21503;SDS011;10913;51.992;9.228;2022-10-26T00:19:00;4.70;;;4.25;;
21503;SDS011;10913;51.992;9.228;2022-10-26T00:21:25;5.85;;;5.32;;
21503;SDS011;10913;51.992;9.228;2022-10-26T00:23:51;5.40;;;4.90;;
21503;SDS011;10913;51.992;9.228;2022-10-26T00:26:16;5.50;;;5.00;;
21503;SDS011;10913;51.992;9.228;2022-10-26T00:28:41;5.20;;;4.70;;
21503;SDS011;10913;51.992;9.228;2022-10-26T00:31:07;5.20;;;4.70;;
21503;SDS011;10913;51.992;9.228;2022-10-26T00:33:36;5.35;;;4.85;;
21503;SDS011;10913;51.992;9.228;2022-10-26T00:36:02;5.70;;;5.15;;
21503;SDS011;10913;51.992;9.228;2022-10-26T00:38:28;6.85;;;4.90;;
21503;SDS011;10913;51.992;9.228;2022-10-26T00:40:54;5.22;;;4.72;;
21503;SDS011;10913;51.992;9.228;2022-10-26T00:45:51;5.45;;;4.50;;
21503;SDS011;10913;51.992;9.228;2022-10-26T00:48:31;5.15;;;4.65;;
21503;SDS011;10913;51.992;9.228;2022-10-26T00:51:03;5.18;;;4.68;;
21503;SDS011;10913;51.992;9.228;2022-10-26T00:53:32;8.20;;;4.70;;
21503;SDS011;10913;51.992;9.228;2022-10-26T00:55:59;4.70;;;4.30;;
21503;SDS011;10913;51.992;9.228;2022-10-26T00:58:25;4.75;;;4.35;;
21503;SDS011;10913;51.992;9.228;2022-10-26T01:00:51;5.38;;;4.88;;
21503;SDS011;10913;51.992;9.228;2022-10-26T01:03:16;4.88;;;4.47;;
21503;SDS011;10913;51.992;9.228;2022-10-26T01:05:42;5.20;;;4.70;;
21503;SDS011;10913;51.992;9.228;2022-10-26T01:08:09;4.50;;;4.10;;
21503;SDS011;10913;51.992;9.228;2022-10-26T01:10:37;5.15;;;3.92;;
21503;SDS011;10913;51.992;9.228;2022-10-26T01:13:04;4.10;;;3.80;;
21503;SDS011;10913;51.992;9.228;2022-10-26T01:15:34;3.95;;;3.58;;
21503;SDS011;10913;51.992;9.228;2022-10-26T01:18:26;4.20;;;3.80;;
21503;SDS011;10913;51.992;9.228;2022-10-26T01:23:25;4.00;;;3.60;;
21503;SDS011;10913;51.992;9.228;2022-10-26T01:31:22;4.38;;;4.00;;
21503;SDS011;10913;51.992;9.228;2022-10-26T01:33:56;4.53;;;4.18;;
21503;SDS011;10913;51.992;9.228;2022-10-26T01:36:33;5.47;;;4.53;;
21503;SDS011;10913;51.992;9.228;2022-10-26T01:39:09;5.00;;;4.60;;
21503;SDS011;10913;51.992;9.228;2022-10-26T01:41:44;4.80;;;4.30;;
21503;SDS011;10913;51.992;9.228;2022-10-26T01:44:14;4.38;;;3.97;;
21503;SDS011;10913;51.992;9.228;2022-10-26T01:46:44;4.45;;;4.15;;
21503;SDS011;10913;51.992;9.228;2022-10-26T01:49:14;4.45;;;4.05;;
21503;SDS011;10913;51.992;9.228;2022-10-26T01:51:42;4.32;;;4.03;;
21503;SDS011;10913;51.992;9.228;2022-10-26T01:54:11;4.38;;;4.00;;
21503;SDS011;10913;51.992;9.228;2022-10-26T01:56:40;3.85;;;3.55;;
21503;SDS011;10913;51.992;9.228;2022-10-26T02:12:44;3.38;;;3.15;;
21503;SDS011;10913;51.992;9.228;2022-10-26T02:15:19;3.55;;;3.25;;
21503;SDS011;10913;51.992;9.228;2022-10-26T02:20:44;3.50;;;3.20;;
21503;SDS011;10913;51.992;9.228;2022-10-26T02:23:14;3.25;;;2.95;;
21503;SDS011;10913;51.992;9.228;2022-10-26T02:25:46;3.22;;;3.03;;
21503;SDS011;10913;51.992;9.228;2022-10-26T02:28:19;3.45;;;3.15;;
21503;SDS011;10913;51.992;9.228;2022-10-26T02:30:49;3.67;;;3.35;;
21503;SDS011;10913;51.992;9.228;2022-10-26T02:33:18;4.18;;;3.20;;
21503;SDS011;10913;51.992;9.228;2022-10-26T02:35:46;3.67;;;3.38;;
21503;SDS011;10913;51.992;9.228;2022-10-26T02:38:14;3.15;;;2.95;;
21503;SDS011;10913;51.992;9.228;2022-10-26T02:40:43;3.30;;;3.05;;
21503;SDS011;10913;51.992;9.228;2022-10-26T02:43:12;3.50;;;3.20;;
21503;SDS011;10913;51.992;9.228;2022-10-26T02:45:45;3.53;;;3.10;;
21503;SDS011;10913;51.992;9.228;2022-10-26T02:50:48;2.97;;;2.70;;
21503;SDS011;10913;51.992;9.228;2022-10-26T02:53:31;3.92;;;2.88;;
21503;SDS011;10913;51.992;9.228;2022-10-26T02:56:19;3.50;;;3.15;;
21503;SDS011;10913;51.992;9.228;2022-10-26T02:58:50;3.67;;;2.97;;
21503;SDS011;10913;51.992;9.228;2022-10-26T03:01:20;4.05;;;3.00;;
21503;SDS011;10913;51.992;9.228;2022-10-26T03:03:46;3.50;;;3.20;;
21503;SDS011;10913;51.992;9.228;2022-10-26T03:06:18;3.53;;;3.10;;
21503;SDS011;10913;51.992;9.228;2022-10-26T03:08:44;3.67;;;3.38;;
21503;SDS011;10913;51.992;9.228;2022-10-26T03:11:10;3.13;;;2.92;;
21503;SDS011;10913;51.992;9.228;2022-10-26T03:13:35;4.38;;;3.15;;
21503;SDS011;10913;51.992;9.228;2022-10-26T03:16:01;3.65;;;3.25;;
21503;SDS011;10913;51.992;9.228;2022-10-26T03:18:26;3.05;;;2.83;;
21503;SDS011;10913;51.992;9.228;2022-10-26T03:20:51;3.75;;;3.42;;
21503;SDS011;10913;51.992;9.228;2022-10-26T03:23:16;3.30;;;3.00;;
21503;SDS011;10913;51.992;9.228;2022-10-26T03:25:42;3.97;;;3.63;;
21503;SDS011;10913;51.992;9.228;2022-10-26T03:28:07;4.00;;;3.60;;
21503;SDS011;10913;51.992;9.228;2022-10-26T03:30:33;3.92;;;3.63;;
21503;SDS011;10913;51.992;9.228;2022-10-26T03:32:58;4.15;;;3.75;;
21503;SDS011;10913;51.992;9.228;2022-10-26T03:35:23;4.43;;;4.03;;
21503;SDS011;10913;51.992;9.228;2022-10-26T03:37:49;4.45;;;4.05;;
21503;SDS011;10913;51.992;9.228;2022-10-26T03:40:14;4.57;;;3.67;;
21503;SDS011;10913;51.992;9.228;2022-10-26T03:42:40;4.07;;;3.50;;
21503;SDS011;10913;51.992;9.228;2022-10-26T03:45:06;3.60;;;3.30;;
21503;SDS011;10913;51.992;9.228;2022-10-26T03:47:32;3.35;;;3.05;;
21503;SDS011;10913;51.992;9.228;2022-10-26T03:49:57;3.30;;;3.00;;
21503;SDS011;10913;51.992;9.228;2022-10-26T03:52:24;3.00;;;2.80;;
21503;SDS011;10913;51.992;9.228;2022-10-26T03:54:49;3.35;;;3.13;;
21503;SDS011;10913;51.992;9.228;2022-10-26T03:57:15;3.22;;;2.92;;
21503;SDS011;10913;51.992;9.228;2022-10-26T03:59:41;3.78;;;2.92;;
21503;SDS011;10913;51.992;9.228;2022-10-26T04:02:07;4.47;;;2.95;;
21503;SDS011;10913;51.992;9.228;2022-10-26T04:04:32;3.20;;;2.90;;
21503;SDS011;10913;51.992;9.228;2022-10-26T04:06:57;3.13;;;2.83;;
21503;SDS011;10913;51.992;9.228;2022-10-26T04:09:23;3.45;;;3.15;;
21503;SDS011;10913;51.992;9.228;2022-10-26T04:11:51;3.35;;;3.05;;
21503;SDS011;10913;51.992;9.228;2022-10-26T04:14:17;3.08;;;2.88;;
21503;SDS011;10913;51.992;9.228;2022-10-26T04:16:42;3.40;;;3.10;;
21503;SDS011;10913;51.992;9.228;2022-10-26T04:19:07;3.17;;;2.97;;
21503;SDS011;10913;51.992;9.228;2022-10-26T04:21:33;3.45;;;3.15;;
21503;SDS011;10913;51.992;9.228;2022-10-26T04:23:59;3.58;;;3.28;;
21503;SDS011;10913;51.992;9.228;2022-10-26T04:26:25;3.42;;;3.13;;
21503;SDS011;10913;51.992;9.228;2022-10-26T04:28:50;3.50;;;3.20;;
21503;SDS011;10913;51.992;9.228;2022-10-26T04:31:15;4.03;;;3.10;;
21503;SDS011;10913;51.992;9.228;2022-10-26T04:33:40;3.88;;;2.78;;
21503;SDS011;10913;51.992;9.228;2022-10-26T04:36:06;3.03;;;2.83;;
21503;SDS011;10913;51.992;9.228;2022-10-26T04:38:32;2.92;;;2.72;;
21503;SDS011;10913;51.992;9.228;2022-10-26T04:40:57;3.00;;;2.75;;
21503;SDS011;10913;51.992;9.228;2022-10-26T04:43:22;2.80;;;2.60;;
21503;SDS011;10913;51.992;9.228;2022-10-26T04:45:48;2.70;;;2.50;;
21503;SDS011;10913;51.992;9.228;2022-10-26T04:48:13;3.15;;;2.80;;
21503;SDS011;10913;51.992;9.228;2022-10-26T04:50:39;3.08;;;2.78;;
21503;SDS011;10913;51.992;9.228;2022-10-26T04:53:05;2.90;;;2.70;;
21503;SDS011;10913;51.992;9.228;2022-10-26T04:55:32;2.80;;;2.60;;
21503;SDS011;10913;51.992;9.228;2022-10-26T04:57:58;3.00;;;2.60;;
21503;SDS011;10913;51.992;9.228;2022-10-26T05:00:23;2.92;;;2.72;;
21503;SDS011;10913;51.992;9.228;2022-10-26T05:02:48;3.15;;;2.38;;
21503;SDS011;10913;51.992;9.228;2022-10-26T05:05:14;2.90;;;2.70;;
21503;SDS011;10913;51.992;9.228;2022-10-26T05:07:39;2.80;;;2.60;;
21503;SDS011;10913;51.992;9.228;2022-10-26T05:10:05;3.00;;;2.78;;
21503;SDS011;10913;51.992;9.228;2022-10-26T05:12:31;2.90;;;2.67;;
21503;SDS011;10913;51.992;9.228;2022-10-26T05:14:56;2.75;;;2.40;;
21503;SDS011;10913;51.992;9.228;2022-10-26T05:17:26;3.75;;;2.63;;
21503;SDS011;10913;51.992;9.228;2022-10-26T05:19:51;2.78;;;2.58;;
21503;SDS011;10913;51.992;9.228;2022-10-26T05:22:23;3.40;;;2.60;;
21503;SDS011;10913;51.992;9.228;2022-10-26T05:24:49;2.90;;;2.50;;
21503;SDS011;10913;51.992;9.228;2022-10-26T05:27:15;2.60;;;2.40;;
21503;SDS011;10913;51.992;9.228;2022-10-26T05:29:40;2.70;;;2.50;;
21503;SDS011;10913;51.992;9.228;2022-10-26T05:32:06;2.40;;;2.20;;
21503;SDS011;10913;51.992;9.228;2022-10-26T05:34:31;2.60;;;2.40;;
21503;SDS011;10913;51.992;9.228;2022-10-26T05:36:56;2.50;;;2.30;;
21503;SDS011;10913;51.992;9.228;2022-10-26T05:39:22;2.65;;;2.45;;
21503;SDS011;10913;51.992;9.228;2022-10-26T05:41:47;2.83;;;2.35;;
21503;SDS011;10913;51.992;9.228;2022-10-26T05:44:13;2.70;;;2.50;;
21503;SDS011;10913;51.992;9.228;2022-10-26T05:46:38;2.60;;;2.35;;
21503;SDS011;10913;51.992;9.228;2022-10-26T05:49:03;3.70;;;2.40;;
21503;SDS011;10913;51.992;9.228;2022-10-26T05:51:31;3.83;;;2.42;;
21503;SDS011;10913;51.992;9.228;2022-10-26T05:53:57;3.28;;;2.95;;
21503;SDS011;10913;51.992;9.228;2022-10-26T05:56:33;2.90;;;2.65;;
21503;SDS011;10913;51.992;9.228;2022-10-26T05:59:03;3.60;;;2.90;;
21503;SDS011;10913;51.992;9.228;2022-10-26T06:07:02;4.10;;;2.83;;
21503;SDS011;10913;51.992;9.228;2022-10-26T06:09:28;3.13;;;2.83;;
21503;SDS011;10913;51.992;9.228;2022-10-26T06:11:53;5.50;;;3.30;;
21503;SDS011;10913;51.992;9.228;2022-10-26T06:14:19;3.40;;;3.10;;
21503;SDS011;10913;51.992;9.228;2022-10-26T06:19:38;3.25;;;2.95;;
21503;SDS011;10913;51.992;9.228;2022-10-26T06:30:26;3.70;;;2.97;;
21503;SDS011;10913;51.992;9.228;2022-10-26T06:32:52;5.05;;;2.97;;
21503;SDS011;10913;51.992;9.228;2022-10-26T06:35:36;3.22;;;2.80;;
21503;SDS011;10913;51.992;9.228;2022-10-26T06:38:15;3.40;;;3.10;;
21503;SDS011;10913;51.992;9.228;2022-10-26T06:40:43;4.38;;;3.35;;
21503;SDS011;10913;51.992;9.228;2022-10-26T06:43:14;4.07;;;3.25;;
21503;SDS011;10913;51.992;9.228;2022-10-26T06:48:15;4.32;;;3.05;;
21503;SDS011;10913;51.992;9.228;2022-10-26T06:50:50;4.07;;;3.42;;
21503;SDS011;10913;51.992;9.228;2022-10-26T06:53:37;3.92;;;3.50;;
21503;SDS011;10913;51.992;9.228;2022-10-26T06:56:29;3.75;;;3.45;;
21503;SDS011;10913;51.992;9.228;2022-10-26T06:58:55;4.97;;;3.58;;
21503;SDS011;10913;51.992;9.228;2022-10-26T07:01:30;4.18;;;3.15;;
21503;SDS011;10913;51.992;9.228;2022-10-26T07:03:56;3.63;;;3.20;;
21503;SDS011;10913;51.992;9.228;2022-10-26T07:06:21;5.15;;;3.25;;
21503;SDS011;10913;51.992;9.228;2022-10-26T07:08:46;3.97;;;3.20;;
21503;SDS011;10913;51.992;9.228;2022-10-26T07:11:12;3.47;;;3.00;;
21503;SDS011;10913;51.992;9.228;2022-10-26T07:13:37;4.50;;;3.25;;
21503;SDS011;10913;51.992;9.228;2022-10-26T07:16:03;6.10;;;3.28;;
21503;SDS011;10913;51.992;9.228;2022-10-26T07:18:28;3.90;;;3.17;;
21503;SDS011;10913;51.992;9.228;2022-10-26T07:20:53;5.30;;;3.33;;
21503;SDS011;10913;51.992;9.228;2022-10-26T07:23:19;3.22;;;2.88;;
21503;SDS011;10913;51.992;9.228;2022-10-26T07:25:44;3.78;;;3.30;;
21503;SDS011;10913;51.992;9.228;2022-10-26T07:28:10;5.00;;;3.20;;
21503;SDS011;10913;51.992;9.228;2022-10-26T07:30:36;3.33;;;3.00;;
21503;SDS011;10913;51.992;9.228;2022-10-26T07:33:03;3.95;;;2.70;;
21503;SDS011;10913;51.992;9.228;2022-10-26T07:35:31;3.30;;;2.97;;
21503;SDS011;10913;51.992;9.228;2022-10-26T07:37:57;4.80;;;2.85;;
21503;SDS011;10913;51.992;9.228;2022-10-26T07:40:23;3.65;;;3.00;;
21503;SDS011;10913;51.992;9.228;2022-10-26T07:42:49;4.78;;;3.15;;
21503;SDS011;10913;51.992;9.228;2022-10-26T07:45:15;4.40;;;2.65;;
21503;SDS011;10913;51.992;9.228;2022-10-26T07:47:40;3.28;;;2.92;;
21503;SDS011;10913;51.992;9.228;2022-10-26T07:50:05;5.47;;;3.00;;
21503;SDS011;10913;51.992;9.228;2022-10-26T07:52:32;5.65;;;3.13;;
21503;SDS011;10913;51.992;9.228;2022-10-26T07:54:59;3.67;;;2.80;;
21503;SDS011;10913;51.992;9.228;2022-10-26T07:57:25;4.90;;;2.85;;
21503;SDS011;10913;51.992;9.228;2022-10-26T07:59:50;3.88;;;3.00;;
21503;SDS011;10913;51.992;9.228;2022-10-26T08:02:15;4.28;;;3.05;;
21503;SDS011;10913;51.992;9.228;2022-10-26T08:04:41;4.78;;;2.85;;
21503;SDS011;10913;51.992;9.228;2022-10-26T08:07:06;3.97;;;2.83;;
21503;SDS011;10913;51.992;9.228;2022-10-26T08:09:31;3.22;;;2.90;;
21503;SDS011;10913;51.992;9.228;2022-10-26T08:11:57;4.30;;;2.90;;
21503;SDS011;10913;51.992;9.228;2022-10-26T08:14:22;3.97;;;2.67;;
21503;SDS011;10913;51.992;9.228;2022-10-26T08:16:47;3.67;;;2.40;;
21503;SDS011;10913;51.992;9.228;2022-10-26T08:19:16;2.83;;;2.40;;
21503;SDS011;10913;51.992;9.228;2022-10-26T08:21:42;4.10;;;2.60;;
21503;SDS011;10913;51.992;9.228;2022-10-26T08:24:07;3.75;;;2.40;;
21503;SDS011;10913;51.992;9.228;2022-10-26T08:26:32;2.63;;;2.40;;
21503;SDS011;10913;51.992;9.228;2022-10-26T08:28:58;2.85;;;2.30;;
21503;SDS011;10913;51.992;9.228;2022-10-26T08:31:23;3.30;;;2.15;;
21503;SDS011;10913;51.992;9.228;2022-10-26T08:33:49;3.25;;;2.15;;
21503;SDS011;10913;51.992;9.228;2022-10-26T08:36:14;3.22;;;2.60;;
21503;SDS011;10913;51.992;9.228;2022-10-26T08:38:46;4.20;;;2.67;;
21503;SDS011;10913;51.992;9.228;2022-10-26T08:41:12;4.72;;;2.42;;
21503;SDS011;10913;51.992;9.228;2022-10-26T08:46:05;6.30;;;2.60;;
21503;SDS011;10913;51.992;9.228;2022-10-26T08:48:53;6.93;;;2.10;;
21503;SDS011;10913;51.992;9.228;2022-10-26T08:53:49;5.50;;;2.13;;
21503;SDS011;10913;51.992;9.228;2022-10-26T09:02:01;4.10;;;1.90;;
21503;SDS011;10913;51.992;9.228;2022-10-26T09:04:28;2.60;;;1.60;;
21503;SDS011;10913;51.992;9.228;2022-10-26T09:12:23;3.78;;;1.80;;
21503;SDS011;10913;51.992;9.228;2022-10-26T09:14:53;4.43;;;1.80;;
21503;SDS011;10913;51.992;9.228;2022-10-26T09:24:55;5.53;;;2.13;;
21503;SDS011;10913;51.992;9.228;2022-10-26T09:27:37;4.95;;;2.30;;
21503;SDS011;10913;51.992;9.228;2022-10-26T09:30:15;2.97;;;2.30;;
21503;SDS011;10913;51.992;9.228;2022-10-26T09:32:46;4.45;;;2.33;;
21503;SDS011;10913;51.992;9.228;2022-10-26T09:37:47;3.22;;;2.05;;
21503;SDS011;10913;51.992;9.228;2022-10-26T09:42:47;5.70;;;2.70;;
21503;SDS011;10913;51.992;9.228;2022-10-26T09:45:22;4.65;;;2.30;;
21503;SDS011;10913;51.992;9.228;2022-10-26T09:47:49;4.35;;;2.80;;
21503;SDS011;10913;51.992;9.228;2022-10-26T09:50:19;4.90;;;2.70;;
21503;SDS011;10913;51.992;9.228;2022-10-26T09:52:49;3.17;;;2.47;;
21503;SDS011;10913;51.992;9.228;2022-10-26T09:55:14;7.07;;;2.63;;
21503;SDS011;10913;51.992;9.228;2022-10-26T09:57:41;6.38;;;2.35;;
21503;SDS011;10913;51.992;9.228;2022-10-26T10:00:13;4.93;;;2.53;;
21503;SDS011;10913;51.992;9.228;2022-10-26T10:02:40;6.05;;;3.00;;
21503;SDS011;10913;51.992;9.228;2022-10-26T10:13:23;2.97;;;2.13;;
21503;SDS011;10913;51.992;9.228;2022-10-26T10:15:52;5.05;;;2.28;;
21503;SDS011;10913;51.992;9.228;2022-10-26T10:18:20;3.65;;;2.03;;
21503;SDS011;10913;51.992;9.228;2022-10-26T10:20:54;4.47;;;2.08;;
21503;SDS011;10913;51.992;9.228;2022-10-26T10:23:32;4.78;;;1.83;;
21503;SDS011;10913;51.992;9.228;2022-10-26T10:26:08;4.57;;;1.88;;
21503;SDS011;10913;51.992;9.228;2022-10-26T10:28:37;3.95;;;2.05;;
21503;SDS011;10913;51.992;9.228;2022-10-26T10:31:09;2.35;;;1.63;;
21503;SDS011;10913;51.992;9.228;2022-10-26T10:33:44;5.53;;;2.00;;
21503;SDS011;10913;51.992;9.228;2022-10-26T10:36:13;2.33;;;1.80;;
21503;SDS011;10913;51.992;9.228;2022-10-26T10:38:42;5.13;;;2.00;;
21503;SDS011;10913;51.992;9.228;2022-10-26T10:41:16;4.93;;;2.05;;
21503;SDS011;10913;51.992;9.228;2022-10-26T10:43:50;5.25;;;1.77;;
21503;SDS011;10913;51.992;9.228;2022-10-26T10:46:20;5.32;;;2.03;;
21503;SDS011;10913;51.992;9.228;2022-10-26T10:48:50;4.45;;;1.77;;
21503;SDS011;10913;51.992;9.228;2022-10-26T10:51:26;2.63;;;1.58;;
21503;SDS011;10913;51.992;9.228;2022-10-26T10:53:55;3.72;;;1.80;;
21503;SDS011;10913;51.992;9.228;2022-10-26T11:07:29;3.45;;;1.42;;
21503;SDS011;10913;51.992;9.228;2022-10-26T11:09:59;5.95;;;1.80;;
21503;SDS011;10913;51.992;9.228;2022-10-26T11:12:28;4.07;;;1.50;;
21503;SDS011;10913;51.992;9.228;2022-10-26T11:15:09;3.30;;;1.38;;
21503;SDS011;10913;51.992;9.228;2022-10-26T11:20:31;2.95;;;1.50;;
21503;SDS011;10913;51.992;9.228;2022-10-26T11:23:11;4.65;;;1.63;;
21503;SDS011;10913;51.992;9.228;2022-10-26T11:28:14;2.33;;;1.40;;
21503;SDS011;10913;51.992;9.228;2022-10-26T11:30:53;4.47;;;1.52;;
21503;SDS011;10913;51.992;9.228;2022-10-26T11:33:25;4.90;;;1.50;;
21503;SDS011;10913;51.992;9.228;2022-10-26T11:35:57;3.92;;;1.80;;
21503;SDS011;10913;51.992;9.228;2022-10-26T11:41:54;3.95;;;2.00;;
21503;SDS011;10913;51.992;9.228;2022-10-26T11:46:40;6.07;;;1.80;;
21503;SDS011;10913;51.992;9.228;2022-10-26T11:54:35;3.17;;;1.77;;
21503;SDS011;10913;51.992;9.228;2022-10-26T11:57:04;5.07;;;1.80;;
21503;SDS011;10913;51.992;9.228;2022-10-26T11:59:32;4.70;;;1.90;;
21503;SDS011;10913;51.992;9.228;2022-10-26T12:02:10;4.25;;;2.03;;
21503;SDS011;10913;51.992;9.228;2022-10-26T12:04:47;3.55;;;2.05;;
21503;SDS011;10913;51.992;9.228;2022-10-26T12:07:30;3.78;;;1.83;;
21503;SDS011;10913;51.992;9.228;2022-10-26T12:09:59;3.72;;;1.83;;
21503;SDS011;10913;51.992;9.228;2022-10-26T12:18:13;5.90;;;1.70;;
21503;SDS011;10913;51.992;9.228;2022-10-26T12:21:01;2.15;;;1.50;;
21503;SDS011;10913;51.992;9.228;2022-10-26T12:23:38;4.78;;;1.52;;
21503;SDS011;10913;51.992;9.228;2022-10-26T12:28:47;3.00;;;1.60;;
21503;SDS011;10913;51.992;9.228;2022-10-26T12:33:56;4.35;;;1.70;;
21503;SDS011;10913;51.992;9.228;2022-10-26T12:52:39;4.22;;;2.05;;
21503;SDS011;10913;51.992;9.228;2022-10-26T13:00:12;6.10;;;1.80;;
21503;SDS011;10913;51.992;9.228;2022-10-26T13:08:08;3.05;;;1.70;;
21503;SDS011;10913;51.992;9.228;2022-10-26T13:10:36;3.30;;;1.88;;
21503;SDS011;10913;51.992;9.228;2022-10-26T13:13:05;3.72;;;1.80;;
21503;SDS011;10913;51.992;9.228;2022-10-26T13:15:39;3.95;;;1.70;;
21503;SDS011;10913;51.992;9.228;2022-10-26T13:18:16;5.15;;;1.80;;
21503;SDS011;10913;51.992;9.228;2022-10-26T13:23:26;3.78;;;1.70;;
21503;SDS011;10913;51.992;9.228;2022-10-26T13:26:28;3.75;;;1.85;;
21503;SDS011;10913;51.992;9.228;2022-10-26T13:31:50;3.90;;;1.50;;
21503;SDS011;10913;51.992;9.228;2022-10-26T13:34:12;3.50;;;2.13;;
21503;SDS011;10913;51.992;9.228;2022-10-26T13:39:39;4.20;;;1.90;;
21503;SDS011;10913;51.992;9.228;2022-10-26T13:42:08;3.88;;;1.80;;
21503;SDS011;10913;51.992;9.228;2022-10-26T13:44:41;5.40;;;2.10;;
21503;SDS011;10913;51.992;9.228;2022-10-26T13:47:23;4.15;;;1.90;;
21503;SDS011;10913;51.992;9.228;2022-10-26T13:49:54;3.78;;;1.73;;
21503;SDS011;10913;51.992;9.228;2022-10-26T13:52:28;5.05;;;1.80;;
21503;SDS011;10913;51.992;9.228;2022-10-26T13:55:08;4.00;;;2.30;;
21503;SDS011;10913;51.992;9.228;2022-10-26T14:01:03;5.43;;;1.88;;
21503;SDS011;10913;51.992;9.228;2022-10-26T14:03:35;6.93;;;1.90;;
21503;SDS011;10913;51.992;9.228;2022-10-26T14:06:04;4.50;;;1.90;;
21503;SDS011;10913;51.992;9.228;2022-10-26T14:08:37;4.07;;;2.05;;
21503;SDS011;10913;51.992;9.228;2022-10-26T14:11:05;4.75;;;1.80;;
21503;SDS011;10913;51.992;9.228;2022-10-26T14:13:32;3.70;;;2.15;;
21503;SDS011;10913;51.992;9.228;2022-10-26T14:15:58;3.97;;;2.08;;
21503;SDS011;10913;51.992;9.228;2022-10-26T14:18:25;3.45;;;1.75;;
21503;SDS011;10913;51.992;9.228;2022-10-26T14:21:03;3.72;;;1.80;;
21503;SDS011;10913;51.992;9.228;2022-10-26T14:23:44;7.10;;;2.45;;
21503;SDS011;10913;51.992;9.228;2022-10-26T14:26:20;4.00;;;1.92;;
21503;SDS011;10913;51.992;9.228;2022-10-26T14:28:57;4.85;;;1.80;;
21503;SDS011;10913;51.992;9.228;2022-10-26T14:31:28;5.47;;;1.80;;
21503;SDS011;10913;51.992;9.228;2022-10-26T14:33:54;3.58;;;1.88;;
21503;SDS011;10913;51.992;9.228;2022-10-26T14:36:44;6.53;;;2.50;;
21503;SDS011;10913;51.992;9.228;2022-10-26T14:39:22;3.65;;;1.85;;
21503;SDS011;10913;51.992;9.228;2022-10-26T14:42:00;7.65;;;2.00;;
21503;SDS011;10913;51.992;9.228;2022-10-26T14:44:32;3.72;;;1.83;;
21503;SDS011;10913;51.992;9.228;2022-10-26T14:47:00;3.47;;;1.80;;
21503;SDS011;10913;51.992;9.228;2022-10-26T14:49:26;3.20;;;1.95;;
21503;SDS011;10913;51.992;9.228;2022-10-26T14:51:56;4.07;;;1.92;;
21503;SDS011;10913;51.992;9.228;2022-10-26T14:54:23;3.25;;;2.25;;
21503;SDS011;10913;51.992;9.228;2022-10-26T14:56:51;5.63;;;2.10;;
21503;SDS011;10913;51.992;9.228;2022-10-26T15:12:30;4.63;;;2.42;;
21503;SDS011;10913;51.992;9.228;2022-10-26T15:14:59;4.57;;;2.20;;
21503;SDS011;10913;51.992;9.228;2022-10-26T15:17:41;3.63;;;2.20;;
21503;SDS011;10913;51.992;9.228;2022-10-26T15:20:17;3.67;;;2.10;;
21503;SDS011;10913;51.992;9.228;2022-10-26T15:22:54;5.18;;;2.25;;
21503;SDS011;10913;51.992;9.228;2022-10-26T15:25:28;4.40;;;2.30;;
21503;SDS011;10913;51.992;9.228;2022-10-26T15:28:09;2.65;;;2.15;;
21503;SDS011;10913;51.992;9.228;2022-10-26T15:33:27;3.70;;;2.20;;
21503;SDS011;10913;51.992;9.228;2022-10-26T15:36:14;2.90;;;2.20;;
21503;SDS011;10913;51.992;9.228;2022-10-26T15:38:44;6.53;;;2.50;;
21503;SDS011;10913;51.992;9.228;2022-10-26T15:43:47;3.92;;;2.20;;
21503;SDS011;10913;51.992;9.228;2022-10-26T15:46:14;3.50;;;2.20;;
21503;SDS011;10913;51.992;9.228;2022-10-26T15:48:40;5.45;;;2.38;;
21503;SDS011;10913;51.992;9.228;2022-10-26T15:51:09;4.47;;;2.40;;
21503;SDS011;10913;51.992;9.228;2022-10-26T15:53:36;5.03;;;2.53;;
21503;SDS011;10913;51.992;9.228;2022-10-26T15:56:01;6.18;;;2.63;;
21503;SDS011;10913;51.992;9.228;2022-10-26T15:58:33;6.18;;;2.60;;
21503;SDS011;10913;51.992;9.228;2022-10-26T16:00:58;5.05;;;2.42;;
21503;SDS011;10913;51.992;9.228;2022-10-26T16:03:24;3.20;;;2.33;;
21503;SDS011;10913;51.992;9.228;2022-10-26T16:05:55;5.10;;;2.13;;
21503;SDS011;10913;51.992;9.228;2022-10-26T16:08:22;4.25;;;2.00;;
21503;SDS011;10913;51.992;9.228;2022-10-26T16:10:50;6.00;;;2.13;;
21503;SDS011;10913;51.992;9.228;2022-10-26T16:13:15;4.97;;;2.38;;
21503;SDS011;10913;51.992;9.228;2022-10-26T16:15:41;5.50;;;2.17;;
21503;SDS011;10913;51.992;9.228;2022-10-26T16:18:06;3.67;;;2.20;;
21503;SDS011;10913;51.992;9.228;2022-10-26T16:20:32;3.78;;;2.03;;
21503;SDS011;10913;51.992;9.228;2022-10-26T16:22:58;5.95;;;2.33;;
21503;SDS011;10913;51.992;9.228;2022-10-26T16:25:30;5.80;;;2.20;;
21503;SDS011;10913;51.992;9.228;2022-10-26T16:27:56;4.55;;;2.15;;
21503;SDS011;10913;51.992;9.228;2022-10-26T16:30:21;4.38;;;2.03;;
21503;SDS011;10913;51.992;9.228;2022-10-26T16:32:47;3.95;;;2.00;;
21503;SDS011;10913;51.992;9.228;2022-10-26T16:35:12;4.68;;;2.10;;
21503;SDS011;10913;51.992;9.228;2022-10-26T16:37:38;3.92;;;2.30;;
21503;SDS011;10913;51.992;9.228;2022-10-26T16:40:05;5.45;;;2.42;;
21503;SDS011;10913;51.992;9.228;2022-10-26T16:42:32;9.68;;;5.00;;
21503;SDS011;10913;51.992;9.228;2022-10-26T16:44:57;7.25;;;3.60;;
21503;SDS011;10913;51.992;9.228;2022-10-26T16:47:23;7.70;;;3.50;;
21503;SDS011;10913;51.992;9.228;2022-10-26T16:49:49;6.45;;;2.80;;
21503;SDS011;10913;51.992;9.228;2022-10-26T16:52:14;4.95;;;2.58;;
21503;SDS011;10913;51.992;9.228;2022-10-26T16:54:40;5.13;;;2.38;;
21503;SDS011;10913;51.992;9.228;2022-10-26T16:57:05;3.90;;;2.30;;
21503;SDS011;10913;51.992;9.228;2022-10-26T16:59:31;4.78;;;2.30;;
21503;SDS011;10913;51.992;9.228;2022-10-26T17:01:56;5.97;;;2.22;;
21503;SDS011;10913;51.992;9.228;2022-10-26T17:04:21;5.68;;;2.17;;
21503;SDS011;10913;51.992;9.228;2022-10-26T17:06:47;6.70;;;2.45;;
21503;SDS011;10913;51.992;9.228;2022-10-26T17:09:12;6.63;;;2.38;;
21503;SDS011;10913;51.992;9.228;2022-10-26T17:11:38;6.75;;;2.35;;
21503;SDS011;10913;51.992;9.228;2022-10-26T17:14:03;4.40;;;2.33;;
21503;SDS011;10913;51.992;9.228;2022-10-26T17:16:28;3.67;;;2.47;;
21503;SDS011;10913;51.992;9.228;2022-10-26T17:18:54;7.25;;;2.97;;
21503;SDS011;10913;51.992;9.228;2022-10-26T17:21:25;6.70;;;3.00;;
21503;SDS011;10913;51.992;9.228;2022-10-26T17:23:56;6.15;;;2.92;;
21503;SDS011;10913;51.992;9.228;2022-10-26T17:26:22;6.20;;;3.17;;
21503;SDS011;10913;51.992;9.228;2022-10-26T17:28:51;4.72;;;3.17;;
21503;SDS011;10913;51.992;9.228;2022-10-26T17:31:20;7.25;;;3.40;;
21503;SDS011;10913;51.992;9.228;2022-10-26T17:33:46;5.53;;;3.20;;
21503;SDS011;10913;51.992;9.228;2022-10-26T17:36:15;6.15;;;4.57;;
21503;SDS011;10913;51.992;9.228;2022-10-26T17:38:44;6.53;;;3.58;;
21503;SDS011;10913;51.992;9.228;2022-10-26T17:41:12;5.65;;;2.83;;
21503;SDS011;10913;51.992;9.228;2022-10-26T17:43:39;5.93;;;2.72;;
21503;SDS011;10913;51.992;9.228;2022-10-26T17:46:07;5.85;;;2.60;;
21503;SDS011;10913;51.992;9.228;2022-10-26T17:48:36;3.15;;;2.40;;
21503;SDS011;10913;51.992;9.228;2022-10-26T17:51:02;3.97;;;2.20;;
21503;SDS011;10913;51.992;9.228;2022-10-26T17:53:32;4.80;;;2.50;;
21503;SDS011;10913;51.992;9.228;2022-10-26T17:58:30;5.30;;;2.50;;
21503;SDS011;10913;51.992;9.228;2022-10-26T18:00:59;5.97;;;2.38;;
21503;SDS011;10913;51.992;9.228;2022-10-26T18:03:26;3.45;;;2.25;;